Time;durP1;ratioP1;P1;durP2;ratioP2;P2;SDS_P1;SDS_P2;PMS_P1;PMS_P2;Temp;Humidity;BMP_temperature;BMP_pressure;BME280_temperature;BME280_humidity;BME280_pressure;Samples;Min_cycle;Max_cycle;Signal;HPM_P1;HPM_P2
2023/04/25 00:00:34;;;;;;;5.07;2.97;;;;;;;-145.41;100.00;58600.66;4984404;28;20053;-71
2023/04/25 00:02:59;;;;;;;6.47;3.72;;;;;;;-145.41;100.00;58600.66;4987379;28;20128;-71
2023/04/25 00:05:26;;;;;;;6.47;3.63;;;;;;;-145.41;100.00;58600.66;4983319;28;20043;-71
2023/04/25 00:07:51;;;;;;;5.22;2.97;;;;;;;-145.41;100.00;58600.66;4994675;28;20497;-71
2023/04/25 00:10:17;;;;;;;5.68;3.35;;;;;;;-145.41;100.00;58600.66;4986509;28;20041;-71
2023/04/25 00:12:42;;;;;;;5.15;2.90;;;;;;;-145.41;100.00;58600.66;4983429;28;20505;-71
2023/04/25 00:15:09;;;;;;;5.45;2.92;;;;;;;-145.41;100.00;58600.66;4983137;28;20045;-70
2023/04/25 00:17:34;;;;;;;5.13;2.97;;;;;;;-145.41;100.00;58600.66;4983650;28;20167;-71
2023/04/25 00:20:00;;;;;;;6.10;3.10;;;;;;;-145.41;100.00;58600.66;4982445;28;20038;-70
2023/04/25 00:22:26;;;;;;;5.95;2.92;;;;;;;-145.41;100.00;58600.66;4983856;28;20039;-71
2023/04/25 00:24:53;;;;;;;7.60;3.30;;;;;;;-145.41;100.00;58600.66;4985401;28;20061;-71
2023/04/25 00:27:18;;;;;;;6.13;3.20;;;;;;;-145.41;100.00;58600.66;4981994;28;20486;-70
2023/04/25 00:29:44;;;;;;;6.80;3.03;;;;;;;-145.41;100.00;58600.66;4984148;28;20038;-70
2023/04/25 00:32:10;;;;;;;5.93;3.15;;;;;;;-145.41;100.00;58600.66;4981427;28;20151;-71
2023/04/25 00:34:35;;;;;;;5.97;2.90;;;;;;;-145.41;100.00;58600.66;4984326;28;20607;-71
2023/04/25 00:37:04;;;;;;;5.05;2.80;;;;;;;-145.41;100.00;58600.66;4964027;28;20038;-70
2023/04/25 00:39:30;;;;;;;7.47;3.42;;;;;;;-145.41;100.00;58600.66;4977728;28;20485;-71
2023/04/25 00:41:56;;;;;;;4.80;3.00;;;;;;;-145.41;100.00;58600.66;4985925;28;20037;-71
2023/04/25 00:44:22;;;;;;;6.78;3.50;;;;;;;-145.41;100.00;58600.66;4981232;28;20038;-71
2023/04/25 00:46:49;;;;;;;5.40;3.03;;;;;;;-145.41;100.00;58600.66;4966722;28;20048;-71
2023/04/25 00:49:16;;;;;;;6.45;3.10;;;;;;;-145.41;100.00;58600.66;4981380;28;20046;-71
2023/04/25 00:51:43;;;;;;;5.13;2.92;;;;;;;-145.41;100.00;58600.66;4983396;28;20125;-71
2023/04/25 00:54:10;;;;;;;5.40;2.70;;;;;;;-145.41;100.00;58600.66;4981266;28;20041;-70
2023/04/25 00:56:35;;;;;;;5.07;3.38;;;;;;;-145.41;100.00;58600.66;4984608;28;20030;-70
2023/04/25 00:59:01;;;;;;;6.03;3.28;;;;;;;-145.41;100.00;58600.66;4966825;28;20701;-70
2023/04/25 01:01:27;;;;;;;4.90;3.40;;;;;;;-145.41;100.00;58600.66;4982389;28;20081;-71
2023/04/25 01:03:53;;;;;;;6.30;2.95;;;;;;;-145.41;100.00;58600.66;4965269;28;20070;-70
2023/04/25 01:06:19;;;;;;;6.28;3.30;;;;;;;-145.41;100.00;58600.66;4964658;28;20049;-71
2023/04/25 01:08:44;;;;;;;6.32;3.50;;;;;;;-145.41;100.00;58600.66;4980195;28;20050;-71
2023/04/25 01:11:10;;;;;;;7.07;3.08;;;;;;;-145.41;100.00;58600.66;4981815;28;20173;-71
2023/04/25 01:13:36;;;;;;;5.55;3.33;;;;;;;-145.41;100.00;58600.66;4984022;28;20113;-71
2023/04/25 01:16:02;;;;;;;5.65;3.55;;;;;;;-145.41;100.00;58600.66;4966612;28;20022;-70
2023/04/25 01:18:28;;;;;;;7.45;4.43;;;;;;;-145.41;100.00;58600.66;4981355;28;20493;-71
2023/04/25 01:20:54;;;;;;;6.57;3.35;;;;;;;-145.41;100.00;58600.66;4983272;28;20121;-70
2023/04/25 01:23:21;;;;;;;8.73;3.50;;;;;;;-145.41;100.00;58600.66;4963564;28;20050;-71
2023/04/25 01:25:48;;;;;;;6.15;3.40;;;;;;;-145.41;100.00;58600.66;4966477;28;20084;-71
2023/04/25 01:28:14;;;;;;;5.93;3.20;;;;;;;-145.41;100.00;58600.66;4963404;28;20042;-71
2023/04/25 01:30:40;;;;;;;5.85;3.35;;;;;;;-145.41;100.00;58600.66;4983526;28;20034;-70
2023/04/25 01:33:07;;;;;;;5.63;3.38;;;;;;;-145.41;100.00;58600.66;4980367;28;20042;-71
2023/04/25 01:35:33;;;;;;;4.57;2.70;;;;;;;-145.41;100.00;58600.66;4966011;28;20035;-71
2023/04/25 01:37:59;;;;;;;5.43;3.10;;;;;;;-145.41;100.00;58600.66;4970706;28;20412;-71
2023/04/25 01:40:24;;;;;;;6.20;3.45;;;;;;;-145.41;100.00;58600.66;4986737;28;20097;-71
2023/04/25 01:42:51;;;;;;;5.78;3.00;;;;;;;-145.41;100.00;58600.66;4980891;28;20406;-71
2023/04/25 01:45:17;;;;;;;6.97;4.30;;;;;;;-145.41;100.00;58600.66;4965491;28;20061;-71
2023/04/25 01:47:43;;;;;;;4.78;3.50;;;;;;;-145.41;100.00;58600.66;4967279;28;20065;-71
2023/04/25 01:50:09;;;;;;;6.55;3.55;;;;;;;-145.41;100.00;58600.66;4972091;28;20034;-71
2023/04/25 01:52:36;;;;;;;7.65;4.15;;;;;;;-145.41;100.00;58600.66;4968046;28;20057;-71
2023/04/25 01:55:04;;;;;;;4.93;3.40;;;;;;;-145.41;100.00;58600.66;4964490;28;20504;-71
2023/04/25 01:57:32;;;;;;;6.68;4.00;;;;;;;-145.41;100.00;58600.66;4974831;28;20440;-71
2023/04/25 02:00:02;;;;;;;8.25;3.90;;;;;;;-145.41;100.00;58600.66;4976796;28;20461;-71
2023/04/25 02:02:46;;;;;;;6.13;4.18;;;;;;;-145.41;100.00;58600.66;4981975;28;20507;-70
2023/04/25 02:05:23;;;;;;;9.07;4.15;;;;;;;-145.41;100.00;58600.66;4972045;28;20568;-71
2023/04/25 02:07:49;;;;;;;9.13;4.20;;;;;;;-145.41;100.00;58600.66;4983995;28;20030;-71
2023/04/25 02:10:14;;;;;;;7.55;4.68;;;;;;;-145.41;100.00;58600.66;4982101;28;20121;-71
2023/04/25 02:12:52;;;;;;;7.05;4.50;;;;;;;-145.41;100.00;58600.66;4981843;28;20035;-71
2023/04/25 02:15:37;;;;;;;8.38;4.88;;;;;;;-145.41;100.00;58600.66;4983716;28;20047;-71
2023/04/25 02:18:15;;;;;;;9.15;4.55;;;;;;;-145.41;100.00;58600.66;4985426;28;20034;-71
2023/04/25 02:20:42;;;;;;;10.45;5.25;;;;;;;-145.41;100.00;58600.66;4967982;28;20034;-71
2023/04/25 02:23:07;;;;;;;7.28;4.43;;;;;;;-145.41;100.00;58600.66;4988568;28;20038;-71
2023/04/25 02:25:32;;;;;;;10.50;5.30;;;;;;;-145.41;100.00;58600.66;4986071;28;20034;-70
2023/04/25 02:27:58;;;;;;;8.05;5.28;;;;;;;-145.41;100.00;58600.66;4974870;28;20062;-71
2023/04/25 02:30:23;;;;;;;8.05;4.50;;;;;;;-145.41;100.00;58600.66;4985842;28;20038;-70
2023/04/25 02:32:48;;;;;;;7.88;4.40;;;;;;;-145.41;100.00;58600.66;4974595;28;20042;-70
2023/04/25 02:35:15;;;;;;;8.50;4.70;;;;;;;-145.41;100.00;58600.66;5067290;23;20061;-73
2023/04/25 02:37:41;;;;;;;7.10;4.25;;;;;;;-145.41;100.00;58600.66;5025314;28;20404;-73
2023/04/25 02:40:07;;;;;;;6.28;4.22;;;;;;;-145.41;100.00;58600.66;5028578;28;20408;-73
2023/04/25 02:42:33;;;;;;;8.52;4.13;;;;;;;-145.41;100.00;58600.66;5025841;28;20073;-74
2023/04/25 02:44:58;;;;;;;9.32;4.10;;;;;;;-145.41;100.00;58600.66;5016164;28;20076;-73
2023/04/25 02:47:26;;;;;;;9.02;3.65;;;;;;;-145.41;100.00;58600.66;4988448;28;20584;-73
2023/04/25 02:49:51;;;;;;;7.68;4.30;;;;;;;-145.41;100.00;58600.66;4996433;28;20120;-73
2023/04/25 02:52:16;;;;;;;8.20;4.43;;;;;;;-145.41;100.00;58600.66;4996493;28;20046;-73
2023/04/25 02:54:44;;;;;;;9.52;3.88;;;;;;;-145.41;100.00;58600.66;4996277;28;20055;-73
2023/04/25 02:57:09;;;;;;;8.18;3.78;;;;;;;-145.41;100.00;58600.66;4996540;28;20404;-73
2023/04/25 02:59:36;;;;;;;6.70;3.72;;;;;;;-145.41;100.00;58600.66;5004189;28;20068;-73
2023/04/25 03:02:01;;;;;;;10.13;3.50;;;;;;;-145.41;100.00;58600.66;5004832;28;20747;-73
2023/04/25 03:04:27;;;;;;;6.55;3.88;;;;;;;-145.41;100.00;58600.66;4993126;28;20026;-73
2023/04/25 03:06:53;;;;;;;8.02;4.28;;;;;;;-145.41;100.00;58600.66;5004022;28;20192;-74
2023/04/25 03:09:20;;;;;;;4.80;3.30;;;;;;;-145.41;100.00;58600.66;4993785;28;20035;-73
2023/04/25 03:11:46;;;;;;;9.15;4.57;;;;;;;-145.41;100.00;58600.66;4980171;28;20038;-73
2023/04/25 03:14:12;;;;;;;10.38;4.45;;;;;;;-145.41;100.00;58600.66;4996078;28;20022;-73
2023/04/25 03:16:38;;;;;;;7.78;4.53;;;;;;;-145.41;100.00;58600.66;4994862;28;20038;-73
2023/04/25 03:19:04;;;;;;;10.13;4.38;;;;;;;-145.41;100.00;58600.66;5013364;28;20037;-73
2023/04/25 03:21:31;;;;;;;7.03;4.53;;;;;;;-145.41;100.00;58600.66;4995946;28;20040;-74
2023/04/25 03:23:57;;;;;;;6.55;4.38;;;;;;;-145.41;100.00;58600.66;4995932;28;20416;-74
2023/04/25 03:26:23;;;;;;;7.43;3.92;;;;;;;-145.41;100.00;58600.66;4996194;28;20048;-73
2023/04/25 03:28:48;;;;;;;7.28;4.18;;;;;;;-145.41;100.00;58600.66;4996860;28;20110;-73
2023/04/25 03:31:13;;;;;;;7.60;4.68;;;;;;;-145.41;100.00;58600.66;4996317;28;20108;-73
2023/04/25 03:33:39;;;;;;;7.63;4.38;;;;;;;-145.41;100.00;58600.66;4992852;28;20065;-73
2023/04/25 03:36:05;;;;;;;7.85;4.25;;;;;;;-145.41;100.00;58600.66;5011471;28;20740;-74
2023/04/25 03:38:30;;;;;;;8.93;5.18;;;;;;;-145.41;100.00;58600.66;5015002;28;20046;-73
2023/04/25 03:40:56;;;;;;;9.30;4.93;;;;;;;-145.41;100.00;58600.66;5012887;28;20496;-74
2023/04/25 03:43:26;;;;;;;8.57;4.20;;;;;;;-145.41;100.00;58600.66;4994326;28;20037;-73
2023/04/25 03:46:00;;;;;;;8.43;4.20;;;;;;;-145.41;100.00;58600.66;4995530;28;20492;-73
2023/04/25 03:48:26;;;;;;;7.88;4.55;;;;;;;-145.41;100.00;58600.66;4995417;28;20126;-73
2023/04/25 03:50:54;;;;;;;11.30;5.47;;;;;;;-145.41;100.00;58600.66;4995235;28;20068;-73
2023/04/25 03:53:19;;;;;;;7.03;4.82;;;;;;;-145.41;100.00;58600.66;4995343;28;20577;-73
2023/04/25 03:56:13;;;;;;;7.65;4.75;;;;;;;-145.41;100.00;58600.66;4958977;28;20066;-74
2023/04/25 03:58:40;;;;;;;6.88;4.15;;;;;;;-145.41;100.00;58600.66;4995376;28;20033;-73
2023/04/25 04:01:07;;;;;;;9.77;5.25;;;;;;;-145.41;100.00;58600.66;4995025;28;20121;-74
2023/04/25 04:03:35;;;;;;;7.60;4.55;;;;;;;-145.41;100.00;58600.66;4995006;28;20062;-74
2023/04/25 04:06:05;;;;;;;10.35;5.57;;;;;;;-145.41;100.00;58600.66;4996083;28;20060;-74
2023/04/25 04:08:33;;;;;;;11.52;5.80;;;;;;;-145.41;100.00;58600.66;5009721;28;20045;-73
2023/04/25 04:10:59;;;;;;;10.30;5.55;;;;;;;-145.41;100.00;58600.66;5012137;28;20033;-74
2023/04/25 04:13:26;;;;;;;10.52;5.07;;;;;;;-145.41;100.00;58600.66;4993720;28;20084;-74
2023/04/25 04:15:52;;;;;;;10.13;4.80;;;;;;;-145.41;100.00;58600.66;4997849;28;20087;-74
2023/04/25 04:18:18;;;;;;;9.18;4.60;;;;;;;-145.41;100.00;58600.66;4997204;28;20447;-74
2023/04/25 04:20:43;;;;;;;9.07;5.05;;;;;;;-145.41;100.00;58600.66;4997013;28;20034;-74
2023/04/25 04:23:08;;;;;;;10.88;5.30;;;;;;;-145.41;100.00;58600.66;5012409;28;20412;-74
2023/04/25 04:25:35;;;;;;;10.95;5.35;;;;;;;-145.41;100.00;58600.66;4994492;28;20433;-74
2023/04/25 04:28:18;;;;;;;8.80;4.68;;;;;;;-145.41;100.00;58600.66;4998169;28;20030;-74
2023/04/25 04:30:52;;;;;;;8.38;5.13;;;;;;;-145.41;100.00;58600.66;4991407;28;20073;-74
2023/04/25 04:33:21;;;;;;;9.45;5.03;;;;;;;-145.41;100.00;58600.66;4994574;28;20508;-74
2023/04/25 04:35:52;;;;;;;9.32;4.05;;;;;;;-145.41;100.00;58600.66;4997660;28;20040;-74
2023/04/25 04:38:18;;;;;;;8.15;4.07;;;;;;;-145.41;100.00;58600.66;4995719;28;20034;-73
2023/04/25 04:40:44;;;;;;;9.90;4.32;;;;;;;-145.41;100.00;58600.66;4992916;28;20032;-74
2023/04/25 04:43:23;;;;;;;10.30;4.63;;;;;;;-145.41;100.00;58600.66;4989620;28;20058;-73
2023/04/25 04:46:06;;;;;;;;;;;;;;;-145.41;100.00;58600.66;4986793;28;20033;-74
2023/04/25 04:48:56;;;;;;;11.93;4.15;;;;;;;-145.41;100.00;58600.66;4991901;28;20280;-74
2023/04/25 04:51:44;;;;;;;9.93;5.65;;;;;;;-145.41;100.00;58600.66;5008877;28;20042;-73
2023/04/25 04:54:28;;;;;;;8.70;4.43;;;;;;;-145.41;100.00;58600.66;5009941;28;20472;-74
2023/04/25 04:57:10;;;;;;;;;;;;;;;-145.41;100.00;58600.66;5001894;28;20049;-73
2023/04/25 04:59:55;;;;;;;11.13;4.47;;;;;;;-145.41;100.00;58600.66;4997274;28;19967;-73
2023/04/25 05:02:51;;;;;;;9.65;4.43;;;;;;;-145.41;100.00;58600.66;4995553;28;20045;-73
2023/04/25 05:05:29;;;;;;;13.75;7.10;;;;;;;-145.41;100.00;58600.66;4996788;28;20026;-73
2023/04/25 05:08:13;;;;;;;8.43;4.93;;;;;;;-145.41;100.00;58600.66;4992433;28;20132;-74
2023/04/25 05:11:17;;;;;;;13.60;6.38;;;;;;;-145.41;100.00;58600.66;4931888;29;20047;-73
2023/04/25 05:13:56;;;;;;;9.23;4.82;;;;;;;-145.41;100.00;58600.66;4915657;29;20554;-73
2023/04/25 05:16:45;;;;;;;11.45;5.70;;;;;;;-145.41;100.00;58600.66;4966716;28;20770;-73
2023/04/25 05:19:21;;;;;;;12.15;5.88;;;;;;;-145.41;100.00;58600.66;4993762;28;20045;-73
2023/04/25 05:22:07;;;;;;;10.70;4.93;;;;;;;-145.41;100.00;58600.66;4994800;28;20048;-73
2023/04/25 05:24:52;;;;;;;10.05;4.75;;;;;;;-145.41;100.00;58600.66;5007732;28;20381;-73
2023/04/25 05:27:52;;;;;;;10.32;4.65;;;;;;;-145.41;100.00;58600.66;4967619;28;20431;-73
2023/04/25 05:30:42;;;;;;;7.95;4.05;;;;;;;-145.41;100.00;58600.66;4993260;28;20041;-73
2023/04/25 05:33:31;;;;;;;7.78;4.40;;;;;;;-145.41;100.00;58600.66;5002789;28;20049;-73
2023/04/25 05:35:56;;;;;;;7.35;4.35;;;;;;;-145.41;100.00;58600.66;4994909;28;20034;-73
2023/04/25 05:38:23;;;;;;;9.82;3.70;;;;;;;-145.41;100.00;58600.66;4993759;28;20466;-73
2023/04/25 05:41:03;;;;;;;9.70;4.68;;;;;;;-145.41;100.00;58600.66;5010499;28;20132;-73
2023/04/25 05:43:39;;;;;;;9.05;3.90;;;;;;;-145.41;100.00;58600.66;5006080;28;20037;-72
2023/04/25 05:46:22;;;;;;;9.90;4.22;;;;;;;-145.41;100.00;58600.66;4995388;28;20389;-73
2023/04/25 05:49:02;;;;;;;9.82;4.47;;;;;;;-145.41;100.00;58600.66;4989587;28;20096;-73
2023/04/25 05:51:46;;;;;;;9.27;4.05;;;;;;;-145.41;100.00;58600.66;4997460;28;20057;-73
2023/04/25 05:54:32;;;;;;;8.35;4.28;;;;;;;-145.41;100.00;58600.66;5013739;28;20064;-73
2023/04/25 05:56:58;;;;;;;6.05;3.63;;;;;;;-145.41;100.00;58600.66;4999639;28;20041;-74
2023/04/25 05:59:24;;;;;;;11.15;5.07;;;;;;;-145.41;100.00;58600.66;5014778;28;20034;-73
2023/04/25 06:01:50;;;;;;;8.15;4.18;;;;;;;-145.41;100.00;58600.66;4993438;28;20118;-74
2023/04/25 06:04:15;;;;;;;8.35;4.13;;;;;;;-145.41;100.00;58600.66;4994007;28;20116;-73
2023/04/25 06:06:40;;;;;;;8.13;3.38;;;;;;;-145.41;100.00;58600.66;5004966;28;20489;-73
2023/04/25 06:09:06;;;;;;;12.93;5.10;;;;;;;-145.41;100.00;58600.66;4993225;28;20034;-73
2023/04/25 06:11:31;;;;;;;10.38;4.18;;;;;;;-145.41;100.00;58600.66;4996519;28;20030;-73
2023/04/25 06:13:57;;;;;;;7.05;3.45;;;;;;;-145.41;100.00;58600.66;4997745;28;20350;-73
2023/04/25 06:16:22;;;;;;;10.50;3.70;;;;;;;-145.41;100.00;58600.66;4994658;28;20060;-73
2023/04/25 06:18:48;;;;;;;9.25;3.70;;;;;;;-145.41;100.00;58600.66;4994515;28;20030;-74
2023/04/25 06:21:14;;;;;;;9.73;3.22;;;;;;;-145.41;100.00;58600.66;4993225;28;20107;-73
2023/04/25 06:23:39;;;;;;;9.65;4.32;;;;;;;-145.41;100.00;58600.66;4990285;28;20489;-74
2023/04/25 06:26:07;;;;;;;8.13;3.20;;;;;;;-145.41;100.00;58600.66;5010835;28;20072;-74
2023/04/25 06:28:35;;;;;;;8.15;3.33;;;;;;;-145.41;100.00;58600.66;4989670;28;20049;-73
2023/04/25 06:31:01;;;;;;;8.88;3.00;;;;;;;-145.41;100.00;58600.66;4992902;28;20025;-73
2023/04/25 06:33:26;;;;;;;7.75;2.97;;;;;;;-145.41;100.00;58600.66;4993150;28;20038;-73
2023/04/25 06:35:53;;;;;;;8.02;3.90;;;;;;;-145.41;100.00;58600.66;4993268;28;20041;-74
2023/04/25 06:38:22;;;;;;;9.95;3.17;;;;;;;-145.41;100.00;58600.66;4991305;28;20042;-74
2023/04/25 06:40:51;;;;;;;6.63;2.72;;;;;;;-145.41;100.00;58600.66;4993162;28;20036;-73
2023/04/25 06:43:17;;;;;;;5.70;2.67;;;;;;;-145.41;100.00;58600.66;5003736;28;20237;-73
2023/04/25 06:46:01;;;;;;;8.27;3.13;;;;;;;-145.41;100.00;58600.66;5008236;28;20132;-73
2023/04/25 06:48:28;;;;;;;9.02;3.08;;;;;;;-145.41;100.00;58600.66;5001876;28;20053;-73
2023/04/25 06:50:54;;;;;;;9.50;2.95;;;;;;;-145.41;100.00;58600.66;4993577;28;20505;-73
2023/04/25 06:53:19;;;;;;;7.00;2.80;;;;;;;-145.41;100.00;58600.66;4995597;28;20034;-73
2023/04/25 06:55:49;;;;;;;9.13;2.90;;;;;;;-145.41;100.00;58600.66;4998130;28;20082;-73
2023/04/25 06:58:20;;;;;;;6.20;2.92;;;;;;;-145.41;100.00;58600.66;4998889;28;20041;-74
2023/04/25 07:01:03;;;;;;;;;;;;;;;-145.41;100.00;58600.66;4993828;28;20459;-73
2023/04/25 07:03:37;;;;;;;9.05;3.17;;;;;;;-145.41;100.00;58600.66;5014625;28;19914;-73
2023/04/25 07:06:10;;;;;;;6.07;2.33;;;;;;;-145.41;100.00;58600.66;5015977;28;20559;-73
2023/04/25 07:08:36;;;;;;;5.78;2.20;;;;;;;-145.41;100.00;58600.66;4996823;28;20052;-73
2023/04/25 07:11:01;;;;;;;6.03;2.13;;;;;;;-145.41;100.00;58600.66;4996131;28;20496;-74
2023/04/25 07:13:27;;;;;;;6.95;2.35;;;;;;;-145.41;100.00;58600.66;4997760;28;20071;-74
2023/04/25 07:15:53;;;;;;;10.70;2.45;;;;;;;-145.41;100.00;58600.66;5013711;28;20038;-74
2023/04/25 07:18:20;;;;;;;8.30;2.28;;;;;;;-145.41;100.00;58600.66;5004866;28;20038;-74
2023/04/25 07:20:46;;;;;;;8.00;2.40;;;;;;;-145.41;100.00;58600.66;4995828;28;20048;-73
2023/04/25 07:23:11;;;;;;;7.90;2.88;;;;;;;-145.41;100.00;58600.66;4995773;28;20037;-74
2023/04/25 07:25:38;;;;;;;7.05;2.75;;;;;;;-145.41;100.00;58600.66;4995702;28;20562;-73
2023/04/25 07:28:04;;;;;;;8.38;3.00;;;;;;;-145.41;100.00;58600.66;4995893;28;20029;-74
2023/04/25 07:30:30;;;;;;;8.23;3.25;;;;;;;-145.41;100.00;58600.66;5013044;28;20042;-73
2023/04/25 07:32:55;;;;;;;8.80;3.28;;;;;;;-145.41;100.00;58600.66;5013469;28;20053;-74
2023/04/25 07:35:21;;;;;;;8.95;2.88;;;;;;;-145.41;100.00;58600.66;5013011;28;20488;-73
2023/04/25 07:37:47;;;;;;;6.75;2.40;;;;;;;-145.41;100.00;58600.66;4995516;28;20033;-73
2023/04/25 07:40:16;;;;;;;7.40;3.13;;;;;;;-145.41;100.00;58600.66;4995438;28;20512;-74
2023/04/25 07:42:45;;;;;;;8.52;3.22;;;;;;;-145.41;100.00;58600.66;4995715;28;20041;-74
2023/04/25 07:45:15;;;;;;;6.75;2.85;;;;;;;-145.41;100.00;58600.66;4995136;28;20026;-74
2023/04/25 07:47:40;;;;;;;6.43;2.35;;;;;;;-145.41;100.00;58600.66;4990719;28;20373;-74
2023/04/25 07:50:06;;;;;;;9.48;2.80;;;;;;;-145.41;100.00;58600.66;5011595;28;20029;-74
2023/04/25 07:52:33;;;;;;;9.52;2.70;;;;;;;-145.41;100.00;58600.66;4996536;28;20030;-72
2023/04/25 07:55:07;;;;;;;7.95;2.50;;;;;;;-145.41;100.00;58600.66;5010377;28;20405;-74
2023/04/25 07:57:47;;;;;;;6.68;2.60;;;;;;;-145.41;100.00;58600.66;4993825;28;20077;-73
2023/04/25 08:00:14;;;;;;;7.65;2.60;;;;;;;-145.41;100.00;58600.66;5017500;28;20488;-73
2023/04/25 08:02:45;;;;;;;7.07;2.65;;;;;;;-145.41;100.00;58600.66;5002280;28;20025;-73
2023/04/25 08:05:15;;;;;;;7.50;2.55;;;;;;;-145.41;100.00;58600.66;4994709;28;20466;-73
2023/04/25 08:07:43;;;;;;;5.47;2.40;;;;;;;-145.41;100.00;58600.66;4999152;28;20077;-74
2023/04/25 08:10:11;;;;;;;7.80;2.65;;;;;;;-145.41;100.00;58600.66;5012980;28;20504;-73
2023/04/25 08:12:36;;;;;;;5.57;2.30;;;;;;;-145.41;100.00;58600.66;5004701;28;20037;-74
2023/04/25 08:15:04;;;;;;;5.07;1.98;;;;;;;-145.41;100.00;58600.66;5002965;28;20029;-74
2023/04/25 08:17:34;;;;;;;7.97;2.35;;;;;;;-145.41;100.00;58600.66;4998867;28;20038;-74
2023/04/25 08:19:59;;;;;;;5.60;2.40;;;;;;;-145.41;100.00;58600.66;5013913;28;20048;-73
2023/04/25 08:22:30;;;;;;;7.50;2.95;;;;;;;-145.41;100.00;58600.66;4992523;28;20030;-73
2023/04/25 08:25:15;;;;;;;4.00;2.00;;;;;;;-145.41;100.00;58600.66;4988860;28;20111;-74
2023/04/25 08:27:43;;;;;;;8.98;3.17;;;;;;;-145.41;100.00;58600.66;4999922;28;20040;-74
2023/04/25 08:30:08;;;;;;;6.13;2.97;;;;;;;-145.41;100.00;58600.66;4995182;28;20045;-74
2023/04/25 08:32:37;;;;;;;5.75;2.95;;;;;;;-145.41;100.00;58600.66;4994683;28;20385;-74
2023/04/25 08:35:33;;;;;;;5.22;2.42;;;;;;;-145.41;100.00;58600.66;4996504;28;20077;-73
2023/04/25 08:38:00;;;;;;;8.00;2.42;;;;;;;-145.41;100.00;58600.66;4994388;28;20045;-73
2023/04/25 08:40:29;;;;;;;5.93;2.60;;;;;;;-145.41;100.00;58600.66;4994292;28;20033;-73
2023/04/25 08:43:03;;;;;;;6.07;2.42;;;;;;;-145.41;100.00;58600.66;5012211;28;20041;-74
2023/04/25 08:45:31;;;;;;;7.40;2.75;;;;;;;-145.41;100.00;58600.66;5011441;28;20160;-73
2023/04/25 08:47:58;;;;;;;6.93;2.92;;;;;;;-145.41;100.00;58600.66;4994446;28;20029;-74
2023/04/25 08:50:26;;;;;;;6.07;3.13;;;;;;;-145.41;100.00;58600.66;4994260;28;20042;-74
2023/04/25 08:52:53;;;;;;;8.07;2.90;;;;;;;-145.41;100.00;58600.66;4994402;28;20044;-74
2023/04/25 08:55:20;;;;;;;5.43;3.00;;;;;;;-145.41;100.00;58600.66;4994188;28;20077;-74
2023/04/25 08:57:48;;;;;;;7.22;2.95;;;;;;;-145.41;100.00;58600.66;4976742;28;20039;-74
2023/04/25 09:00:14;;;;;;;6.78;2.90;;;;;;;-145.41;100.00;58600.66;4993879;28;20045;-74
2023/04/25 09:02:42;;;;;;;4.93;2.72;;;;;;;-145.41;100.00;58600.66;4994155;28;20049;-73
2023/04/25 09:05:09;;;;;;;5.78;2.50;;;;;;;-145.41;100.00;58600.66;5011535;28;20061;-73
2023/04/25 09:07:35;;;;;;;9.45;3.22;;;;;;;-145.41;100.00;58600.66;4993943;28;20091;-74
2023/04/25 09:10:03;;;;;;;5.82;2.70;;;;;;;-145.41;100.00;58600.66;4993607;28;20037;-73
2023/04/25 09:12:30;;;;;;;7.75;3.05;;;;;;;-145.41;100.00;58600.66;4994167;28;20029;-74
2023/04/25 09:15:07;;;;;;;7.80;2.40;;;;;;;-145.41;100.00;58600.66;4993024;28;20457;-74
2023/04/25 09:17:57;;;;;;;4.75;2.40;;;;;;;-145.41;100.00;58600.66;4993276;28;20119;-74
2023/04/25 09:20:24;;;;;;;6.82;2.92;;;;;;;-145.41;100.00;58600.66;4993532;28;20045;-74
2023/04/25 09:23:01;;;;;;;6.55;2.55;;;;;;;-145.41;100.00;58600.66;4996061;28;20056;-74
2023/04/25 09:25:26;;;;;;;5.78;3.10;;;;;;;-145.41;100.00;58600.66;4998347;28;20040;-74
2023/04/25 09:27:54;;;;;;;8.07;2.90;;;;;;;-145.41;100.00;58600.66;5017513;28;20037;-74
2023/04/25 09:30:30;;;;;;;6.97;3.00;;;;;;;-145.41;100.00;58600.66;4996059;28;20026;-74
2023/04/25 09:33:05;;;;;;;6.80;2.60;;;;;;;-145.41;100.00;58600.66;4989164;28;20041;-74
2023/04/25 09:35:38;;;;;;;6.78;2.83;;;;;;;-145.41;100.00;58600.66;4986302;28;20022;-74
2023/04/25 09:38:13;;;;;;;5.70;3.00;;;;;;;-145.41;100.00;58600.66;4993610;28;20041;-74
2023/04/25 09:40:49;;;;;;;6.45;2.70;;;;;;;-145.41;100.00;58600.66;5008164;28;20046;-74
2023/04/25 09:43:24;;;;;;;7.68;3.13;;;;;;;-145.41;100.00;58600.66;4993853;28;20037;-74
2023/04/25 09:45:53;;;;;;;6.22;3.10;;;;;;;-145.41;100.00;58600.66;4993857;28;20034;-74
2023/04/25 09:48:22;;;;;;;7.20;3.45;;;;;;;-145.41;100.00;58600.66;4993563;28;20057;-74
2023/04/25 09:51:13;;;;;;;7.10;3.90;;;;;;;-145.41;100.00;58600.66;4993467;28;20059;-74
2023/04/25 09:53:42;;;;;;;4.95;3.05;;;;;;;-145.41;100.00;58600.66;4993521;28;20037;-73
2023/04/25 09:56:14;;;;;;;5.88;3.28;;;;;;;-145.41;100.00;58600.66;4990410;28;20034;-74
2023/04/25 09:58:40;;;;;;;5.40;3.03;;;;;;;-145.41;100.00;58600.66;5002128;28;20040;-73
2023/04/25 10:01:09;;;;;;;7.60;3.60;;;;;;;-145.41;100.00;58600.66;4993439;28;20465;-74
2023/04/25 10:03:47;;;;;;;4.95;3.03;;;;;;;-145.41;100.00;58600.66;4992001;28;20044;-72
2023/04/25 10:06:34;;;;;;;6.72;3.85;;;;;;;-145.41;100.00;58600.66;4997314;28;20045;-72
2023/04/25 10:09:00;;;;;;;9.98;4.47;;;;;;;-145.41;100.00;58600.66;4993095;28;20026;-73
2023/04/25 10:11:27;;;;;;;8.35;4.75;;;;;;;-145.41;100.00;58600.66;5010913;28;20034;-72
2023/04/25 10:13:53;;;;;;;8.35;4.95;;;;;;;-145.41;100.00;58600.66;5010237;28;20042;-72
2023/04/25 10:16:19;;;;;;;8.32;4.90;;;;;;;-145.41;100.00;58600.66;5012335;28;20038;-73
2023/04/25 10:18:44;;;;;;;7.85;5.07;;;;;;;-145.41;100.00;58600.66;5006032;28;20086;-72
2023/04/25 10:21:10;;;;;;;9.23;4.70;;;;;;;-145.41;100.00;58600.66;5002077;28;20038;-73
2023/04/25 10:23:36;;;;;;;7.60;3.65;;;;;;;-145.41;100.00;58600.66;4997264;28;20061;-73
2023/04/25 10:26:02;;;;;;;4.90;3.17;;;;;;;-145.41;100.00;58600.66;5000987;28;20062;-73
2023/04/25 10:28:28;;;;;;;7.55;2.92;;;;;;;-145.41;100.00;58600.66;5003375;28;20064;-72
2023/04/25 10:31:05;;;;;;;6.13;2.35;;;;;;;-145.41;100.00;58600.66;5005976;28;20038;-73
2023/04/25 10:33:35;;;;;;;6.80;2.50;;;;;;;-145.41;100.00;58600.66;5003794;28;20030;-73
2023/04/25 10:36:18;;;;;;;7.05;2.83;;;;;;;-145.41;100.00;58600.66;5004716;28;20030;-73
2023/04/25 10:38:44;;;;;;;;;;;;;;;-145.41;100.00;58600.66;5005632;28;20065;-73
2023/04/25 10:41:11;;;;;;;7.50;2.95;;;;;;;-145.41;100.00;58600.66;5003245;28;20296;-73
2023/04/25 10:43:41;;;;;;;7.28;2.90;;;;;;;-145.41;100.00;58600.66;5007791;28;20042;-72
2023/04/25 10:46:22;;;;;;;17.05;3.33;;;;;;;-145.41;100.00;58600.66;5011695;28;20499;-72
2023/04/25 10:48:55;;;;;;;9.45;3.33;;;;;;;-145.41;100.00;58600.66;4997465;28;20070;-73
2023/04/25 10:51:25;;;;;;;7.80;2.58;;;;;;;-145.41;100.00;58600.66;5014046;28;20034;-72
2023/04/25 10:54:02;;;;;;;8.43;2.70;;;;;;;-145.41;100.00;58600.66;5013934;28;20433;-73
2023/04/25 10:56:29;;;;;;;5.07;2.25;;;;;;;-145.41;100.00;58600.66;5015053;28;20214;-73
2023/04/25 10:59:15;;;;;;;7.78;2.33;;;;;;;-145.41;100.00;58600.66;5003991;28;20120;-72
2023/04/25 11:01:51;;;;;;;7.90;2.10;;;;;;;-145.41;100.00;58600.66;5015645;28;20073;-72
2023/04/25 11:04:38;;;;;;;7.57;2.63;;;;;;;-145.41;100.00;58600.66;5011158;28;20635;-72
2023/04/25 11:07:06;;;;;;;7.63;2.03;;;;;;;-145.41;100.00;58600.66;4996990;28;20113;-73
2023/04/25 11:09:38;;;;;;;11.90;2.85;;;;;;;-145.41;100.00;58600.66;5013889;28;20508;-73
2023/04/25 11:12:04;;;;;;;8.57;2.30;;;;;;;-145.41;100.00;58600.66;5010979;28;20099;-72
2023/04/25 11:14:30;;;;;;;6.03;2.00;;;;;;;-145.41;100.00;58600.66;5013732;28;20044;-73
2023/04/25 11:16:57;;;;;;;8.50;2.10;;;;;;;-145.41;100.00;58600.66;5013717;28;20045;-73
2023/04/25 11:19:23;;;;;;;6.13;1.80;;;;;;;-145.41;100.00;58600.66;5013494;28;20041;-73
2023/04/25 11:21:49;;;;;;;10.38;2.13;;;;;;;-145.41;100.00;58600.66;5013532;28;20034;-73